Time;durP1;ratioP1;P1;durP2;ratioP2;P2;SDS_P1;SDS_P2;PMS_P1;PMS_P2;Temp;Humidity;BMP_temperature;BMP_pressure;BME280_temperature;BME280_humidity;BME280_pressure;Samples;Min_cycle;Max_cycle;Signal;HPM_P1;HPM_P2
2022/12/01 00:01:51;;;;;;;;;;;;;;;8.89;47.32;101109.97;5432866;32;34838;-71
2022/12/01 00:04:53;;;;;;;;;;;;;;;7.98;48.31;101122.97;5412107;32;34960;-71
2022/12/01 00:07:56;;;;;;;;;;;;;;;7.55;49.47;101131.50;5430356;32;35495;-70
2022/12/01 00:11:02;;;;;;;;;;;;;;;8.29;48.20;101133.78;5403983;32;34591;-70
2022/12/01 00:14:04;;;;;;;;;;;;;;;9.23;45.87;101133.69;5419039;32;44652;-70
2022/12/01 00:17:06;;;;;;;;;;;;;;;9.00;46.04;101128.06;5432181;32;35379;-70
2022/12/01 00:20:08;;;;;;;;;;;;;;;7.76;49.43;101131.16;5396931;32;34562;-71
2022/12/01 00:23:10;;;;;;;;;;;;;;;7.39;50.13;101143.91;5432194;32;33610;-72
2022/12/01 00:26:14;;;;;;;;;;;;;;;7.33;50.82;101134.41;5417694;32;34821;-72
2022/12/01 00:29:16;;;;;;;;;;;;;;;7.17;51.26;101142.50;5431830;32;34872;-69
2022/12/01 00:32:18;;;;;;;;;;;;;;;8.07;49.08;101138.53;5421284;32;35060;-73
2022/12/01 00:35:20;;;;;;;;;;;;;;;7.44;50.75;101142.13;5418160;32;35406;-73
2022/12/01 00:38:22;;;;;;;;;;;;;;;7.24;51.15;101139.78;5431386;32;34899;-72
2022/12/01 00:41:24;;;;;;;;;;;;;;;7.31;50.82;101132.72;5414459;32;34941;-73
2022/12/01 00:44:26;;;;;;;;;;;;;;;6.95;52.30;101144.50;5419387;32;34719;-70
2022/12/01 00:47:28;;;;;;;;;;;;;;;7.45;51.06;101151.69;5417243;32;36429;-70
2022/12/01 00:50:30;;;;;;;;;;;;;;;7.06;52.28;101147.84;5431058;32;34754;-73
2022/12/01 00:53:31;;;;;;;;;;;;;;;6.56;53.98;101153.66;5416761;32;44782;-73
2022/12/01 00:56:33;;;;;;;;;;;;;;;7.01;53.18;101147.03;5417964;32;35531;-74
2022/12/01 00:59:35;;;;;;;;;;;;;;;6.56;54.46;101156.25;5432450;32;34583;-70
2022/12/01 01:02:38;;;;;;;;;;;;;;;6.93;51.95;101157.59;5403060;32;35315;-69
2022/12/01 01:05:43;;;;;;;;;;;;;;;6.73;53.39;101157.81;5424882;32;36579;-70
2022/12/01 01:08:45;;;;;;;;;;;;;;;6.39;54.02;101157.31;5414343;32;35149;-73
2022/12/01 01:11:47;;;;;;;;;;;;;;;7.38;51.37;101155.28;5427383;32;36051;-71
2022/12/01 01:14:49;;;;;;;;;;;;;;;7.06;52.38;101160.91;5422984;32;34988;-70
2022/12/01 01:17:50;;;;;;;;;;;;;;;6.12;54.52;101144.53;5401257;32;34822;-74
2022/12/01 01:20:58;;;;;;;;;;;;;;;6.39;54.41;101156.44;5406164;32;34784;-70
2022/12/01 01:24:00;;;;;;;;;;;;;;;7.64;50.38;101140.97;5401868;32;34230;-70
2022/12/01 01:27:02;;;;;;;;;;;;;;;7.99;49.21;101145.66;5418723;32;44637;-72
2022/12/01 01:30:04;;;;;;;;;;;;;;;7.69;49.95;101147.00;5415727;32;34666;-70
2022/12/01 01:33:06;;;;;;;;;;;;;;;7.93;48.98;101145.75;5424668;32;35755;-70
2022/12/01 01:36:08;;;;;;;;;;;;;;;7.67;49.66;101144.41;5409453;32;34818;-72
2022/12/01 01:39:10;;;;;;;;;;;;;;;7.80;49.09;101137.22;5413138;32;35083;-69
2022/12/01 01:42:13;;;;;;;;;;;;;;;7.47;49.87;101144.69;5429815;32;35034;-70
2022/12/01 01:45:22;;;;;;;;;;;;;;;7.10;51.34;101146.06;5398407;32;34751;-72
2022/12/01 01:48:24;;;;;;;;;;;;;;;7.12;51.54;101139.94;5416950;32;35351;-72
2022/12/01 01:51:46;;;;;;;;;;;;;;;7.25;51.07;101153.72;5397214;32;35130;-70
2022/12/01 01:54:48;;;;;;;;;;;;;;;5.84;55.14;101160.34;5401357;32;35134;-69
2022/12/01 01:57:50;;;;;;;;;;;;;;;5.80;55.74;101158.66;5417756;32;32839;-70
2022/12/01 02:00:52;;;;;;;;;;;;;;;6.19;54.40;101152.28;5415461;32;35028;-69
2022/12/01 02:03:54;;;;;;;;;;;;;;;6.26;54.72;101153.09;5423600;32;34417;-73
2022/12/01 02:06:56;;;;;;;;;;;;;;;6.22;54.30;101153.97;5395586;32;35314;-70
2022/12/01 02:09:58;;;;;;;;;;;;;;;6.44;54.43;101149.41;5415447;32;34823;-72
2022/12/01 02:13:03;;;;;;;;;;;;;;;6.38;54.48;101145.16;5419944;32;36530;-71
2022/12/01 02:16:10;;;;;;;;;;;;;;;6.16;54.73;101141.84;5411225;32;45342;-70
2022/12/01 02:19:23;;;;;;;;;;;;;;;5.87;55.28;101139.47;5403903;32;36406;-69
2022/12/01 02:22:31;;;;;;;;;;;;;;;5.80;55.71;101137.78;5392388;32;35624;-70
2022/12/01 02:25:36;;;;;;;;;;;;;;;5.83;56.20;101148.19;5429347;32;46383;-69
2022/12/01 02:28:56;;;;;;;;;;;;;;;6.00;55.33;101142.00;5415801;32;35578;-69
2022/12/01 02:31:58;;;;;;;;;;;;;;;5.91;54.01;101143.78;5416580;32;34889;-72
2022/12/01 02:35:03;;;;;;;;;;;;;;;6.04;54.44;101144.56;5430780;32;34919;-69
2022/12/01 02:38:05;;;;;;;;;;;;;;;6.34;53.68;101150.41;5413389;32;43402;-70
2022/12/01 02:41:11;;;;;;;;;;;;;;;6.17;54.47;101145.31;5427285;32;35280;-70
2022/12/01 02:44:22;;;;;;;;;;;;;;;6.79;51.77;101141.22;5414717;32;34894;-71
2022/12/01 02:47:24;;;;;;;;;;;;;;;6.50;53.01;101138.91;5421957;32;34601;-70
2022/12/01 02:50:26;;;;;;;;;;;;;;;7.03;51.43;101134.84;5411595;32;35054;-72
2022/12/01 02:53:28;;;;;;;;;;;;;;;6.04;53.63;101139.34;5417009;32;35422;-73
2022/12/01 02:56:30;;;;;;;;;;;;;;;5.03;57.18;101139.97;5408606;32;34242;-69
2022/12/01 02:59:32;;;;;;;;;;;;;;;5.95;55.31;101127.25;5413412;32;44938;-72
2022/12/01 03:02:49;;;;;;;;;;;;;;;6.45;53.67;101125.91;5431994;32;34332;-70
2022/12/01 03:05:52;;;;;;;;;;;;;;;5.77;55.24;101121.28;5402274;32;35247;-72
2022/12/01 03:08:58;;;;;;;;;;;;;;;5.25;57.69;101132.91;5417872;32;35408;-70
2022/12/01 03:11:59;;;;;;;;;;;;;;;6.04;55.03;101128.03;5433815;32;35253;-70
2022/12/01 03:15:08;;;;;;;;;;;;;;;6.10;55.00;101128.00;5416541;32;45234;-72
2022/12/01 03:18:17;;;;;;;;;;;;;;;6.86;52.39;101127.19;5429525;32;35501;-70
2022/12/01 03:21:19;;;;;;;;;;;;;;;5.43;56.49;101132.81;5384531;32;34946;-71
2022/12/01 03:24:21;;;;;;;;;;;;;;;5.49;57.11;101142.34;5422284;32;35488;-72
2022/12/01 03:27:24;;;;;;;;;;;;;;;6.09;55.43;101121.03;5412504;32;34818;-72
2022/12/01 03:30:26;;;;;;;;;;;;;;;6.37;54.42;101125.09;5415738;32;34870;-69
2022/12/01 03:33:35;;;;;;;;;;;;;;;5.29;57.55;101131.16;5430009;32;34408;-71
2022/12/01 03:36:41;;;;;;;;;;;;;;;5.37;57.55;101130.25;5402237;32;44742;-73
2022/12/01 03:39:44;;;;;;;;;;;;;;;5.93;56.00;101123.78;5430140;32;35633;-69
2022/12/01 03:42:51;;;;;;;;;;;;;;;5.47;56.89;101111.91;5401714;32;35196;-69
2022/12/01 03:46:02;;;;;;;;;;;;;;;5.18;57.70;101123.41;5405126;32;35589;-72
2022/12/01 03:49:04;;;;;;;;;;;;;;;5.35;56.85;101118.09;5419034;32;46086;-70
2022/12/01 03:52:15;;;;;;;;;;;;;;;5.78;55.85;101126.47;5417872;32;35571;-70
2022/12/01 03:55:16;;;;;;;;;;;;;;;5.93;55.31;101122.94;5412041;32;34733;-72
2022/12/01 03:58:20;;;;;;;;;;;;;;;6.11;54.33;101111.44;5398868;32;34746;-72
2022/12/01 04:01:22;;;;;;;;;;;;;;;6.62;52.49;101111.78;5413945;32;34832;-73
2022/12/01 04:04:24;;;;;;;;;;;;;;;5.67;54.84;101130.94;5407591;32;35820;-70
2022/12/01 04:07:25;;;;;;;;;;;;;;;5.59;55.10;101130.09;5414376;32;35333;-70
2022/12/01 04:10:27;;;;;;;;;;;;;;;5.61;54.88;101120.53;5419465;32;35121;-71
2022/12/01 04:13:29;;;;;;;;;;;;;;;6.30;53.40;101125.19;5416854;32;34857;-70
2022/12/01 04:16:31;;;;;;;;;;;;;;;6.42;52.14;101119.84;5418019;32;44869;-72
2022/12/01 04:19:33;;;;;;;;;;;;;;;6.23;52.46;101120.03;5394789;32;35120;-69
2022/12/01 04:22:35;;;;;;;;;;;;;;;5.48;54.05;101121.50;5399129;32;35121;-73
2022/12/01 04:25:37;;;;;;;;;;;;;;;4.82;56.22;101117.47;5421082;32;34669;-70
2022/12/01 04:28:39;;;;;;;;;;;;;;;4.59;57.77;101124.50;5403922;32;35295;-70
2022/12/01 04:31:41;;;;;;;;;;;;;;;4.69;57.26;101118.37;5427722;32;35016;-72
2022/12/01 04:34:43;;;;;;;;;;;;;;;4.77;57.14;101107.97;5416487;32;34666;-72
2022/12/01 04:37:45;;;;;;;;;;;;;;;5.72;54.98;101111.72;5419412;32;35272;-70
2022/12/01 04:40:47;;;;;;;;;;;;;;;6.03;53.69;101108.03;5413893;32;35343;-69
2022/12/01 04:43:51;;;;;;;;;;;;;;;6.30;52.34;101114.75;5427582;32;35260;-70
2022/12/01 04:46:52;;;;;;;;;;;;;;;6.07;52.78;101122.81;5426129;32;35532;-70
2022/12/01 04:49:54;;;;;;;;;;;;;;;5.54;54.33;101127.53;5416132;32;35162;-72
2022/12/01 04:52:56;;;;;;;;;;;;;;;4.58;56.84;101141.00;5429719;32;35201;-73
2022/12/01 04:55:59;;;;;;;;;;;;;;;5.49;54.75;101133.66;5415465;32;35180;-69
2022/12/01 04:59:01;;;;;;;;;;;;;;;5.28;54.90;101145.94;5432871;32;44871;-69
2022/12/01 05:02:03;;;;;;;;;;;;;;;4.77;56.75;101158.31;5417356;32;34945;-70
2022/12/01 05:05:05;;;;;;;;;;;;;;;4.86;56.82;101145.25;5404119;32;34721;-72
2022/12/01 05:08:07;;;;;;;;;;;;;;;5.21;55.86;101130.31;5423998;32;34824;-70
2022/12/01 05:11:10;;;;;;;;;;;;;;;5.66;54.32;101123.97;5416916;32;34806;-70
2022/12/01 05:14:12;;;;;;;;;;;;;;;6.09;53.17;101131.47;5416627;32;34750;-70
2022/12/01 05:17:14;;;;;;;;;;;;;;;5.95;53.33;101137.69;5403217;32;34761;-72
2022/12/01 05:23:41;;;;;;;;;;;;;;;5.44;54.46;101129.31;5405723;32;35374;-73
2022/12/01 05:26:43;;;;;;;;;;;;;;;5.01;55.71;101135.63;5416123;32;34955;-70
2022/12/01 05:29:45;;;;;;;;;;;;;;;4.96;56.08;101137.38;5432270;32;34243;-73
2022/12/01 05:32:47;;;;;;;;;;;;;;;5.45;55.26;101138.00;5404466;32;34657;-73
2022/12/01 05:35:49;;;;;;;;;;;;;;;5.83;54.25;101140.34;5430978;32;35393;-74
2022/12/01 05:38:51;;;;;;;;;;;;;;;5.87;53.97;101133.38;5416228;32;33120;-72
2022/12/01 05:41:53;;;;;;;;;;;;;;;5.53;54.75;101137.97;5415468;32;34956;-72
2022/12/01 05:44:55;;;;;;;;;;;;;;;5.18;55.78;101139.03;5407169;32;37552;-72
2022/12/01 05:47:58;;;;;;;;;;;;;;;4.58;57.88;101144.47;5414504;32;34309;-70
2022/12/01 05:51:06;;;;;;;;;;;;;;;4.80;57.00;101137.44;5418529;32;34888;-74
2022/12/01 05:54:08;;;;;;;;;;;;;;;5.04;57.12;101140.84;5416164;32;44672;-72
2022/12/01 05:57:09;;;;;;;;;;;;;;;5.11;56.37;101126.91;5431780;32;34423;-73
2022/12/01 06:00:12;;;;;;;;;;;;;;;4.42;57.62;101147.97;5416177;32;34878;-70
2022/12/01 06:03:14;;;;;;;;;;;;;;;4.03;59.38;101152.34;5428142;32;35401;-73
2022/12/01 06:06:16;;;;;;;;;;;;;;;4.03;60.13;101159.28;5412050;32;37218;-72
2022/12/01 06:09:18;;;;;;;;;;;;;;;4.48;57.81;101158.38;5416342;32;35129;-69
2022/12/01 06:12:20;;;;;;;;;;;;;;;4.62;57.85;101159.19;5418168;32;35377;-71
2022/12/01 06:15:21;;;;;;;;;;;;;;;4.96;56.57;101164.34;5414459;32;35510;-69
2022/12/01 06:18:24;;;;;;;;;;;;;;;4.56;58.02;101168.75;5421641;32;34384;-72
2022/12/01 06:21:26;;;;;;;;;;;;;;;4.80;57.38;101163.50;5384710;32;36260;-70
2022/12/01 06:24:28;;;;;;;;;;;;;;;4.08;60.22;101170.56;5420238;32;35313;-70
2022/12/01 06:27:30;;;;;;;;;;;;;;;4.29;60.54;101172.28;5408755;32;34962;-70
2022/12/01 06:30:32;;;;;;;;;;;;;;;5.08;57.24;101159.03;5412909;32;44378;-69
2022/12/01 06:33:34;;;;;;;;;;;;;;;5.41;56.28;101163.25;5432430;32;35113;-73
2022/12/01 06:36:35;;;;;;;;;;;;;;;5.47;56.55;101158.84;5404514;32;35157;-73
2022/12/01 06:42:48;;;;;;;;;;;;;;;5.36;57.47;101167.62;5361004;32;33039;-90
2022/12/01 06:45:55;;;;;;;;;;;;;;;4.97;58.31;101160.84;5373621;32;35727;-90
2022/12/01 06:49:03;;;;;;;;;;;;;;;5.21;58.50;101154.63;5354394;32;35250;-92
2022/12/01 06:52:10;;;;;;;;;;;;;;;5.53;57.75;101156.22;5310456;32;44535;-90
2022/12/01 06:55:13;;;;;;;;;;;;;;;5.24;58.95;101161.59;5335306;32;34927;-92
2022/12/01 06:58:23;;;;;;;;;;;;;;;4.50;62.56;101163.56;5344583;32;37041;-94
2022/12/01 07:01:52;;;;;;;;;;;;;;;4.49;62.16;101161.84;5337329;32;34762;-89
2022/12/01 07:05:00;;;;;;;;;;;;;;;3.93;64.78;101161.03;5361991;32;35604;-90
2022/12/01 07:08:11;;;;;;;;;;;;;;;4.13;65.50;101166.22;5308195;32;32964;-89
2022/12/01 07:11:18;;;;;;;;;;;;;;;4.92;62.88;101165.19;5338334;32;44588;-93
2022/12/01 07:14:29;;;;;;;;;;;;;;;3.96;66.14;101166.22;5352855;32;34311;-89
2022/12/01 07:17:35;;;;;;;;;;;;;;;4.38;65.67;101172.28;5334020;32;35138;-91
2022/12/01 07:20:41;;;;;;;;;;;;;;;4.52;63.70;101167.91;5343230;32;43387;-94
2022/12/01 07:23:45;;;;;;;;;;;;;;;5.21;62.71;101166.81;5358312;32;36006;-93
2022/12/01 07:26:53;;;;;;;;;;;;;;;5.80;60.29;101165.63;5362501;32;36820;-94
2022/12/01 07:29:58;;;;;;;;;;;;;;;4.81;61.74;101170.44;5344595;32;33816;-92
2022/12/01 07:33:01;;;;;;;;;;;;;;;4.91;63.74;101181.72;5325989;32;34332;-94
2022/12/01 07:36:10;;;;;;;;;;;;;;;5.10;62.92;101175.56;5340348;32;33407;-93
2022/12/01 07:39:38;;;;;;;;;;;;;;;5.76;60.49;101174.31;5319813;32;34824;-92
2022/12/01 07:42:41;;;;;;;;;;;;;;;5.78;59.79;101175.19;5342654;32;44931;-90
2022/12/01 07:45:46;;;;;;;;;;;;;;;5.29;60.42;101178.94;5342762;32;36098;-91
2022/12/01 07:48:52;;;;;;;;;;;;;;;5.89;59.02;101163.78;5338949;32;35035;-89
2022/12/01 07:52:09;;;;;;;;;;;;;;;5.22;60.79;101165.97;5364419;32;45759;-94
2022/12/01 07:55:23;;;;;;;;;;;;;;;5.05;60.96;101166.03;5351899;32;44170;-90
2022/12/01 07:58:50;;;;;;;;;;;;;;;5.07;61.38;101174.69;5363971;32;34700;-93
2022/12/01 08:01:55;;;;;;;;;;;;;;;6.08;58.65;101172.37;5377967;32;36941;-91
2022/12/01 08:05:03;;;;;;;;;;;;;;;6.08;58.83;101177.59;5378454;32;34497;-92
2022/12/01 08:08:17;;;;;;;;;;;;;;;5.53;59.94;101175.31;5365350;32;32931;-93
2022/12/01 08:11:23;;;;;;;;;;;;;;;5.52;60.70;101172.72;5374744;32;34954;-91
2022/12/01 08:14:28;;;;;;;;;;;;;;;5.93;59.10;101175.97;5384994;32;35721;-93
2022/12/01 08:17:34;;;;;;;;;;;;;;;5.65;59.50;101184.81;5371684;32;34318;-94
2022/12/01 08:20:49;;;;;;;;;;;;;;;;;;;;;
2022/12/01 08:23:57;;;;;;;;;;;;;;;6.00;58.71;101171.59;5364869;32;32752;-93
2022/12/01 08:27:05;;;;;;;;;;;;;;;5.79;59.20;101169.94;5361231;32;32677;-90
2022/12/01 08:30:08;;;;;;;;;;;;;;;6.44;57.25;101168.59;5359775;32;35132;-88
2022/12/01 08:33:16;;;;;;;;;;;;;;;6.33;57.46;101173.03;5384425;32;34984;-92
2022/12/01 08:36:24;;;;;;;;;;;;;;;5.32;60.55;101178.06;5384941;32;34764;-94
2022/12/01 08:39:28;;;;;;;;;;;;;;;6.13;58.22;101177.56;5329962;32;34965;-92
2022/12/01 08:42:31;;;;;;;;;;;;;;;6.41;56.32;101181.66;5363823;32;33944;-90
2022/12/01 08:45:38;;;;;;;;;;;;;;;6.24;56.92;101186.16;5356535;32;34107;-92
2022/12/01 08:48:42;;;;;;;;;;;;;;;7.00;55.46;101180.16;5361886;32;33890;-95
2022/12/01 08:51:55;;;;;;;;;;;;;;;6.81;55.58;101181.25;5352048;32;36489;-93
2022/12/01 08:55:01;;;;;;;;;;;;;;;6.73;56.59;101172.63;5345466;32;35214;-93
2022/12/01 08:58:09;;;;;;;;;;;;;;;6.45;56.65;101182.50;5345930;32;33770;-93
2022/12/01 09:01:13;;;;;;;;;;;;;;;7.77;53.54;101166.91;5323127;32;44029;-93
2022/12/01 09:04:20;;;;;;;;;;;;;;;6.99;55.71;101174.94;5327730;32;35433;-89
2022/12/01 09:07:23;;;;;;;;;;;;;;;7.26;55.55;101168.50;5339201;32;35446;-88
2022/12/01 09:10:28;;;;;;;;;;;;;;;8.09;52.36;101163.78;5373585;32;35065;-92
2022/12/01 09:13:34;;;;;;;;;;;;;;;7.63;53.38;101173.25;5312138;32;1520359;-94
2022/12/01 09:16:39;;;;;;;;;;;;;;;7.25;55.10;101167.66;5358373;32;36370;-89
2022/12/01 09:19:43;;;;;;;;;;;;;;;8.01;53.22;101168.28;5329382;32;44028;-91
2022/12/01 09:22:45;;;;;;;;;;;;;;;7.77;52.40;101164.28;5359891;32;33821;-90
2022/12/01 09:25:48;;;;;;;;;;;;;;;7.66;53.83;101163.59;5331873;32;34386;-91
2022/12/01 09:28:58;;;;;;;;;;;;;;;6.97;55.73;101155.81;5355036;32;35764;-94
2022/12/01 09:32:01;;;;;;;;;;;;;;;7.38;54.74;101162.25;5351616;32;33781;-92
2022/12/01 09:35:13;;;;;;;;;;;;;;;7.01;55.71;101155.75;5371853;32;34013;-91
2022/12/01 09:38:24;;;;;;;;;;;;;;;8.31;52.31;101147.72;5372835;32;34157;-94
2022/12/01 09:41:37;;;;;;;;;;;;;;;8.50;51.55;101149.16;5354236;32;34634;-90
2022/12/01 09:44:48;;;;;;;;;;;;;;;7.89;52.39;101150.16;5386704;32;45107;-91
2022/12/01 09:48:00;;;;;;;;;;;;;;;8.41;51.38;101147.53;5359694;32;34248;-92
2022/12/01 09:51:04;;;;;;;;;;;;;;;9.13;49.37;101145.28;5362508;32;36695;-93
2022/12/01 09:54:12;;;;;;;;;;;;;;;8.44;51.01;101145.75;5369645;32;44469;-94
2022/12/01 09:57:28;;;;;;;;;;;;;;;8.42;50.44;101143.16;5358834;32;33915;-95
2022/12/01 10:00:35;;;;;;;;;;;;;;;8.30;49.49;101143.34;5345430;32;34897;-94
2022/12/01 10:03:44;;;;;;;;;;;;;;;8.55;48.29;101135.94;5358308;32;34060;-92
2022/12/01 10:07:03;;;;;;;;;;;;;;;8.01;50.06;101133.41;5363669;32;34420;-94
2022/12/01 10:10:19;;;;;;;;;;;;;;;8.41;48.72;101133.59;5395258;32;44395;-94
2022/12/01 10:13:28;;;;;;;;;;;;;;;9.68;45.73;101123.94;5378289;32;32893;-92
2022/12/01 10:16:46;;;;;;;;;;;;;;;9.53;45.37;101126.03;5359746;32;32478;-94
2022/12/01 10:20:06;;;;;;;;;;;;;;;9.65;45.23;101125.75;5372425;32;34791;-93
2022/12/01 10:23:31;;;;;;;;;;;;;;;8.71;47.20;101121.66;5336379;32;44631;-96
2022/12/01 10:27:09;;;;;;;;;;;;;;;9.42;45.21;101121.91;5360606;32;33399;-93
2022/12/01 10:30:14;;;;;;;;;;;;;;;9.94;44.75;101114.56;5357386;32;44959;-93
2022/12/01 10:33:33;;;;;;;;;;;;;;;8.86;47.03;101110.88;5388649;32;34853;-92
2022/12/01 10:36:45;;;;;;;;;;;;;;;9.28;46.05;101105.63;5404921;32;44504;-93
2022/12/01 10:39:52;;;;;;;;;;;;;;;8.67;47.57;101105.13;5360995;32;34693;-93
2022/12/01 10:43:09;;;;;;;;;;;;;;;9.81;44.87;101105.25;5350328;32;33737;-94
2022/12/01 10:46:18;;;;;;;;;;;;;;;10.11;44.51;101100.97;5362509;32;34760;-89
2022/12/01 10:49:39;;;;;;;;;;;;;;;9.45;44.82;101100.84;5365553;32;34287;-96
2022/12/01 10:53:00;;;;;;;;;;;;;;;8.19;48.44;101108.66;5361651;32;35929;-95
2022/12/01 10:56:09;;;;;;;;;;;;;;;9.32;46.21;101094.13;5355201;32;33894;-95
2022/12/01 10:59:23;;;;;;;;;;;;;;;9.88;45.08;101088.44;5349682;32;33923;-95
2022/12/01 11:02:38;;;;;;;;;;;;;;;10.72;42.72;101083.59;5354311;32;35844;-91
2022/12/01 11:06:37;;;;;;;;;;;;;;;10.35;43.79;101091.63;5334157;32;34911;-96
2022/12/01 11:09:44;;;;;;;;;;;;;;;10.79;41.99;101064.09;5345856;32;35290;-93
2022/12/01 11:12:58;;;;;;;;;;;;;;;8.92;46.04;101084.53;5395290;32;33764;-93
2022/12/01 11:16:09;;;;;;;;;;;;;;;10.94;42.63;101074.16;5360851;32;33612;-91
2022/12/01 11:19:48;;;;;;;;;;;;;;;10.63;42.35;101071.59;5349617;32;33757;-94
2022/12/01 11:23:23;;;;;;;;;;;;;;;11.14;41.78;101065.66;5301220;33;33363;-96
2022/12/01 11:26:27;;;;;;;;;;;;;;;11.81;40.63;101063.56;5211472;33;33692;-71
2022/12/01 11:29:30;;;;;;;;;;;;;;;11.25;41.61;101060.94;5209159;33;35500;-70
2022/12/01 11:32:34;;;;;;;;;;;;;;;10.95;41.17;101060.13;5220178;33;34569;-71
2022/12/01 11:35:38;;;;;;;;;;;;;;;10.40;42.43;101059.06;5238708;33;34387;-67
2022/12/01 11:38:43;;;;;;;;;;;;;;;10.85;42.16;101049.00;5236950;33;45349;-75
2022/12/01 11:41:45;;;;;;;;;;;;;;;11.61;40.65;101051.03;5215867;33;35617;-69
2022/12/01 11:44:48;;;;;;;;;;;;;;;11.52;40.71;101055.72;5251259;33;35382;-71
2022/12/01 11:48:14;;;;;;;;;;;;;;;11.76;40.12;101044.38;5310346;32;44217;-75
2022/12/01 11:51:18;;;;;;;;;;;;;;;10.83;41.72;101053.47;5317859;32;34173;-73
2022/12/01 11:54:21;;;;;;;;;;;;;;;11.63;40.24;101049.19;5311334;32;35777;-73
2022/12/01 11:57:24;;;;;;;;;;;;;;;13.14;37.87;101039.41;5316361;32;34088;-70
2022/12/01 12:00:42;;;;;;;;;;;;;;;12.89;37.61;101037.72;5316574;32;33569;-74
2022/12/01 12:04:03;;;;;;;;;;;;;;;15.87;33.11;101035.06;5304767;32;44332;-73
2022/12/01 12:07:17;;;;;;;;;;;;;;;15.78;32.27;101018.75;5323643;32;36598;-70
2022/12/01 12:10:19;;;;;;;;;;;;;;;14.97;33.91;101030.66;5311231;32;34283;-70
2022/12/01 12:13:30;;;;;;;;;;;;;;;15.13;33.28;101021.94;5331568;32;34237;-68
2022/12/01 12:16:32;;;;;;;;;;;;;;;13.46;36.84;101040.75;5340029;32;34746;-69
2022/12/01 12:19:37;;;;;;;;;;;;;;;12.54;38.29;101038.16;5329981;32;34112;-68
2022/12/01 12:23:02;;;;;;;;;;;;;;;13.42;36.46;101037.41;5332301;32;34681;-69
2022/12/01 12:26:18;;;;;;;;;;;;;;;12.69;37.98;101032.34;5317241;32;35077;-68
2022/12/01 12:29:28;;;;;;;;;;;;;;;11.61;40.03;101037.00;5321955;32;35713;-67
2022/12/01 12:32:35;;;;;;;;;;;;;;;12.09;39.61;101033.63;5330506;32;35540;-77
2022/12/01 12:35:41;;;;;;;;;;;;;;;10.75;42.06;101039.66;5320577;32;43133;-72
2022/12/01 12:38:52;;;;;;;;;;;;;;;13.14;37.98;101026.22;5333818;32;35472;-70
2022/12/01 12:41:54;;;;;;;;;;;;;;;13.36;36.50;101032.38;5325737;32;34336;-69
2022/12/01 12:45:01;;;;;;;;;;;;;;;12.82;37.16;101032.75;5334622;32;34546;-71
2022/12/01 12:48:10;;;;;;;;;;;;;;;13.92;35.63;101031.81;5331448;32;37239;-73
2022/12/01 12:51:19;;;;;;;;;;;;;;;12.93;37.36;101031.38;5322258;32;46213;-70
2022/12/01 12:54:32;;;;;;;;;;;;;;;15.04;33.90;101016.19;5332917;32;35895;-68
2022/12/01 12:57:36;;;;;;;;;;;;;;;14.92;33.50;101011.50;5332448;32;34235;-67
2022/12/01 13:00:39;;;;;;;;;;;;;;;13.14;36.30;101027.06;5335148;32;44664;-74
2022/12/01 13:03:44;;;;;;;;;;;;;;;11.91;38.68;101028.09;5328288;32;38059;-70
2022/12/01 13:07:13;;;;;;;;;;;;;;;10.75;41.41;101029.13;5326882;32;36687;-70
2022/12/01 13:10:27;;;;;;;;;;;;;;;11.05;41.63;101031.75;5331850;32;44780;-72
2022/12/01 13:13:31;;;;;;;;;;;;;;;10.98;41.82;101028.47;5327506;32;33952;-70
2022/12/01 13:16:34;;;;;;;;;;;;;;;11.59;40.69;101020.37;5333920;32;35919;-71
2022/12/01 13:19:36;;;;;;;;;;;;;;;10.82;42.14;101022.81;5324554;32;35352;-71
2022/12/01 13:22:38;;;;;;;;;;;;;;;9.55;44.84;101029.78;5327493;32;44754;-71
2022/12/01 13:25:42;;;;;;;;;;;;;;;9.51;45.33;101036.84;5324200;32;34130;-71
2022/12/01 13:28:49;;;;;;;;;;;;;;;10.72;42.62;101016.09;5327780;32;34802;-75
2022/12/01 13:31:51;;;;;;;;;;;;;;;9.85;44.53;101030.75;5348486;32;34347;-67
2022/12/01 13:34:55;;;;;;;;;;;;;;;10.98;42.05;101023.19;5333744;32;35906;-73
2022/12/01 13:38:17;;;;;;;;;;;;;;;10.05;44.18;101023.22;5332836;32;34341;-70
2022/12/01 13:41:22;;;;;;;;;;;;;;;9.06;45.93;101031.78;5337493;32;34571;-70
2022/12/01 13:44:26;;;;;;;;;;;;;;;9.39;45.87;101034.53;5322388;32;34321;-73
2022/12/01 13:47:29;;;;;;;;;;;;;;;10.94;42.63;101028.59;5338444;32;34202;-69
2022/12/01 13:50:43;;;;;;;;;;;;;;;10.85;42.25;101032.38;5328591;32;34235;-73
2022/12/01 13:54:00;;;;;;;;;;;;;;;11.34;41.17;101020.34;5325545;32;44171;-71
2022/12/01 13:57:03;;;;;;;;;;;;;;;11.44;41.34;101023.53;5336436;32;34726;-77
2022/12/01 14:00:24;;;;;;;;;;;;;;;10.61;43.08;101028.69;5321038;32;35791;-76
2022/12/01 14:03:37;;;;;;;;;;;;;;;10.65;43.12;101025.06;5322078;32;35091;-80
2022/12/01 14:06:49;;;;;;;;;;;;;;;11.55;41.32;101024.03;5316997;32;44917;-70
2022/12/01 14:09:52;;;;;;;;;;;;;;;11.77;39.96;101024.16;5322479;32;34261;-75
2022/12/01 14:12:55;;;;;;;;;;;;;;;11.80;39.71;101019.66;5335422;32;34202;-75
2022/12/01 14:15:57;;;;;;;;;;;;;;;11.92;39.51;101018.44;5323084;32;35562;-69
2022/12/01 14:19:00;;;;;;;;;;;;;;;10.77;41.76;101022.09;5328960;32;34476;-69
2022/12/01 14:22:03;;;;;;;;;;;;;;;11.47;40.53;101021.66;5338730;32;35506;-74
2022/12/01 14:25:19;;;;;;;;;;;;;;;10.36;43.25;101023.25;5327433;32;34100;-69
2022/12/01 14:28:41;;;;;;;;;;;;;;;11.16;41.56;101019.16;5318063;32;35944;-69
2022/12/01 14:31:45;;;;;;;;;;;;;;;10.44;43.21;101015.19;5327218;32;44517;-79
2022/12/01 14:34:50;;;;;;;;;;;;;;;10.04;44.10;101010.97;5337537;32;34446;-71
2022/12/01 14:37:53;;;;;;;;;;;;;;;10.08;44.20;101017.88;5321471;32;35732;-75
2022/12/01 14:40:55;;;;;;;;;;;;;;;10.46;43.16;101023.87;5338355;32;34480;-74
2022/12/01 14:44:04;;;;;;;;;;;;;;;9.98;44.40;101019.03;5324383;32;34311;-76
2022/12/01 14:47:12;;;;;;;;;;;;;;;10.81;42.76;101021.06;5316038;32;43351;-70
2022/12/01 14:50:16;;;;;;;;;;;;;;;10.36;43.55;101011.91;5339425;32;34396;-71
2022/12/01 14:53:28;;;;;;;;;;;;;;;10.05;44.48;101017.97;5338770;32;34335;-71
2022/12/01 14:56:31;;;;;;;;;;;;;;;10.30;44.15;101018.19;5354176;32;35534;-72
2022/12/01 14:59:33;;;;;;;;;;;;;;;10.77;42.96;101014.19;5330958;32;36166;-74
2022/12/01 15:02:42;;;;;;;;;;;;;;;10.49;43.41;101026.41;5335335;32;33585;-76
2022/12/01 15:05:44;;;;;;;;;;;;;;;10.76;42.76;101023.00;5328337;32;43477;-77
2022/12/01 15:08:49;;;;;;;;;;;;;;;10.33;43.67;101023.37;5317022;32;35434;-73
2022/12/01 15:12:18;;;;;;;;;;;;;;;10.73;42.60;101028.34;5326645;32;45484;-74
2022/12/01 15:15:21;;;;;;;;;;;;;;;10.57;42.82;101022.69;5304771;32;36089;-73
2022/12/01 15:18:29;;;;;;;;;;;;;;;10.50;42.88;101030.78;5324344;32;34322;-77
2022/12/01 15:21:31;;;;;;;;;;;;;;;10.47;43.33;101025.59;5328711;32;34517;-73
2022/12/01 15:24:33;;;;;;;;;;;;;;;10.37;43.45;101019.75;5312520;32;34745;-74
2022/12/01 15:27:35;;;;;;;;;;;;;;;10.37;43.50;101026.75;5333818;32;34308;-74
2022/12/01 15:30:38;;;;;;;;;;;;;;;10.38;43.14;101031.13;5324874;32;35380;-73
2022/12/01 15:33:45;;;;;;;;;;;;;;;10.41;43.03;101031.88;5333805;32;44656;-72
2022/12/01 15:36:47;;;;;;;;;;;;;;;10.29;43.68;101026.97;5330690;32;33928;-69
2022/12/01 15:39:51;;;;;;;;;;;;;;;9.78;44.70;101027.41;5328788;32;36059;-69
2022/12/01 15:43:02;;;;;;;;;;;;;;;10.14;44.06;101022.12;5329657;32;34134;-68
2022/12/01 15:46:14;;;;;;;;;;;;;;;10.16;44.04;101025.56;5328303;32;35531;-67
2022/12/01 15:49:28;;;;;;;;;;;;;;;9.16;45.97;101028.06;5340007;32;34336;-74
2022/12/01 15:52:31;;;;;;;;;;;;;;;9.92;44.96;101032.34;5321289;32;34357;-72
2022/12/01 15:55:34;;;;;;;;;;;;;;;9.90;45.05;101034.13;5330154;32;35811;-74
2022/12/01 15:58:40;;;;;;;;;;;;;;;9.89;45.11;101035.88;5340606;32;35752;-73
2022/12/01 16:01:42;;;;;;;;;;;;;;;9.52;45.96;101045.59;5324645;32;44434;-72
2022/12/01 16:04:45;;;;;;;;;;;;;;;8.54;48.60;101029.44;5344751;32;34203;-68
2022/12/01 16:07:47;;;;;;;;;;;;;;;8.02;50.66;101040.87;5340276;32;35469;-70
2022/12/01 16:11:08;;;;;;;;;;;;;;;9.04;48.16;101041.44;5335831;32;45000;-68
2022/12/01 16:14:21;;;;;;;;;;;;;;;8.45;49.10;101034.88;5323230;32;36352;-73
2022/12/01 16:17:23;;;;;;;;;;;;;;;8.20;50.00;101044.91;5326384;32;34500;-68